createdAt,value
2022-12-18T00:01:25.798Z,16.92
2022-12-18T00:03:53.859Z,16.93
2022-12-18T00:06:23.503Z,18.98
2022-12-18T00:08:50.665Z,16.60
2022-12-18T00:11:20.614Z,17.70
2022-12-18T00:13:48.153Z,18.88
2022-12-18T00:16:19.534Z,18.33
2022-12-18T00:18:46.428Z,19.30
2022-12-18T00:21:14.221Z,19.15
2022-12-18T00:23:43.615Z,18.02
2022-12-18T00:26:26.173Z,19.00
2022-12-18T00:29:00.522Z,16.57
2022-12-18T00:31:28.036Z,18.02
2022-12-18T00:33:57.790Z,18.35
2022-12-18T00:36:26.877Z,17.98
2022-12-18T00:38:56.121Z,16.52
2022-12-18T00:41:42.620Z,16.10
2022-12-18T00:44:12.703Z,16.20
2022-12-18T00:46:39.512Z,17.30
2022-12-18T00:49:06.541Z,16.23
2022-12-18T00:51:33.305Z,17.35
2022-12-18T00:54:00.180Z,17.07
2022-12-18T00:56:27.034Z,15.57
2022-12-18T00:58:54.410Z,17.42
2022-12-18T01:01:21.309Z,16.83
2022-12-18T01:03:48.681Z,17.88
2022-12-18T01:06:17.840Z,17.60
2022-12-18T01:08:45.530Z,18.25
2022-12-18T01:11:19.008Z,18.08
2022-12-18T01:13:46.428Z,16.67
2022-12-18T01:16:17.921Z,18.05
2022-12-18T01:18:44.850Z,17.90
2022-12-18T01:21:18.064Z,18.58
2022-12-18T01:23:44.810Z,19.15
2022-12-18T01:26:17.081Z,16.90
2022-12-18T01:28:44.913Z,16.88
2022-12-18T01:31:23.807Z,17.70
2022-12-18T01:33:52.298Z,16.65
2022-12-18T01:36:25.456Z,15.13
2022-12-18T01:38:52.709Z,15.27
2022-12-18T01:41:23.241Z,16.30
2022-12-18T01:43:57.884Z,17.23
2022-12-18T01:46:25.956Z,17.45
2022-12-18T01:49:01.983Z,20.00
2022-12-18T01:51:31.505Z,18.42
2022-12-18T01:54:00.092Z,19.13
2022-12-18T01:56:26.956Z,19.63
2022-12-18T01:59:04.283Z,19.50
2022-12-18T02:01:33.386Z,18.80
2022-12-18T02:04:26.329Z,21.67
2022-12-18T02:07:23.825Z,21.58
2022-12-18T02:09:58.769Z,18.10
2022-12-18T02:12:34.398Z,16.83
2022-12-18T02:15:21.896Z,17.90
2022-12-18T02:17:57.807Z,17.35
2022-12-18T02:20:49.601Z,17.02
2022-12-18T02:23:42.813Z,18.30
2022-12-18T02:26:19.803Z,17.60
2022-12-18T02:29:09.470Z,17.00
2022-12-18T02:31:43.682Z,15.13
2022-12-18T02:34:12.643Z,17.25
2022-12-18T02:36:43.438Z,18.00
2022-12-18T02:39:14.485Z,15.95
2022-12-18T02:41:50.391Z,17.25
2022-12-18T02:44:19.340Z,16.58
2022-12-18T02:46:50.719Z,17.48
2022-12-18T02:49:56.651Z,15.93
2022-12-18T02:52:51.415Z,17.27
2022-12-18T02:55:21.904Z,15.27
2022-12-18T02:58:03.406Z,16.50
2022-12-18T03:00:41.958Z,16.80
2022-12-18T03:03:20.079Z,16.60
2022-12-18T03:05:53.506Z,17.23
2022-12-18T03:08:25.339Z,17.50
2022-12-18T03:11:05.928Z,17.38
2022-12-18T03:13:51.780Z,17.58
2022-12-18T03:16:28.572Z,18.37
2022-12-18T03:19:27.036Z,17.38
2022-12-18T03:22:00.926Z,16.02
2022-12-18T03:24:34.154Z,15.38
2022-12-18T03:27:08.546Z,16.05
2022-12-18T03:29:41.868Z,17.93
2022-12-18T03:32:27.174Z,18.85
2022-12-18T03:34:58.521Z,17.90
2022-12-18T03:37:29.049Z,15.02
2022-12-18T03:39:55.898Z,14.20
2022-12-18T03:42:34.950Z,15.37
2022-12-18T03:45:10.748Z,15.32
2022-12-18T03:47:53.903Z,13.30
2022-12-18T03:50:46.244Z,13.77
2022-12-18T03:53:19.562Z,12.75
2022-12-18T03:55:50.403Z,12.37
2022-12-18T03:58:21.764Z,11.48
2022-12-18T04:01:00.711Z,10.80
2022-12-18T04:03:29.842Z,11.68
2022-12-18T04:06:01.169Z,9.77
2022-12-18T04:08:29.850Z,9.50
2022-12-18T04:11:04.461Z,13.85
2022-12-18T04:13:36.897Z,13.82
2022-12-18T04:16:08.111Z,14.35
2022-12-18T04:18:35.239Z,16.10
2022-12-18T04:21:02.927Z,16.23
2022-12-18T04:23:29.881Z,15.05
2022-12-18T04:25:58.905Z,18.08
2022-12-18T04:28:42.565Z,13.75
2022-12-18T04:31:09.870Z,14.80
2022-12-18T04:33:37.992Z,13.47
2022-12-18T04:36:06.345Z,13.05
2022-12-18T04:38:33.735Z,13.18
2022-12-18T04:41:06.457Z,12.50
2022-12-18T04:43:34.040Z,13.43
2022-12-18T04:46:05.736Z,11.37
2022-12-18T04:48:33.054Z,13.20
2022-12-18T04:51:00.009Z,11.40
2022-12-18T04:53:27.206Z,11.68
2022-12-18T04:56:11.838Z,12.80
2022-12-18T04:58:40.579Z,10.87
2022-12-18T05:01:08.624Z,10.40
2022-12-18T05:03:36.416Z,12.60
2022-12-18T05:06:03.953Z,11.13
2022-12-18T05:08:31.013Z,12.38
2022-12-18T05:11:09.887Z,11.23
2022-12-18T05:13:37.725Z,10.73
2022-12-18T05:16:05.982Z,14.32
2022-12-18T05:18:32.805Z,13.48
2022-12-18T05:20:59.643Z,16.48
2022-12-18T05:23:26.495Z,18.63
2022-12-18T05:25:58.811Z,18.65
2022-12-18T05:28:27.248Z,19.10
2022-12-18T05:30:56.723Z,17.83
2022-12-18T05:33:25.675Z,17.42
2022-12-18T05:35:57.360Z,14.50
2022-12-18T05:38:26.333Z,15.13
2022-12-18T05:40:53.956Z,13.98
2022-12-18T05:43:25.189Z,12.02
2022-12-18T05:45:53.653Z,13.32
2022-12-18T05:48:21.308Z,11.70
2022-12-18T05:50:49.183Z,14.50
2022-12-18T05:53:18.396Z,15.45
2022-12-18T05:55:46.225Z,13.70
2022-12-18T05:58:13.973Z,14.57
2022-12-18T06:00:44.094Z,13.70
2022-12-18T06:03:11.910Z,14.23
2022-12-18T06:05:45.955Z,15.07
2022-12-18T06:08:14.167Z,13.55
2022-12-18T06:10:41.946Z,14.07
2022-12-18T06:13:08.855Z,14.57
2022-12-18T06:15:38.193Z,12.45
2022-12-18T06:18:05.239Z,12.68
2022-12-18T06:20:33.845Z,10.43
2022-12-18T06:23:01.048Z,11.73
2022-12-18T06:25:27.833Z,11.17
2022-12-18T06:27:54.603Z,13.70
2022-12-18T06:30:21.885Z,13.90
2022-12-18T06:32:56.337Z,12.77
2022-12-18T06:35:24.215Z,11.80
2022-12-18T06:37:51.123Z,21.83
2022-12-18T06:40:18.253Z,22.48
2022-12-18T06:42:44.936Z,20.50
2022-12-18T06:45:12.516Z,19.70
2022-12-18T06:47:39.454Z,18.92
2022-12-18T06:50:06.725Z,17.57
2022-12-18T06:52:34.547Z,18.50
2022-12-18T06:55:01.689Z,16.13
2022-12-18T06:57:28.539Z,14.32
2022-12-18T06:59:55.608Z,14.60
2022-12-18T07:02:22.447Z,15.87
2022-12-18T07:04:50.850Z,14.90
2022-12-18T07:07:17.989Z,15.65
2022-12-18T07:09:44.707Z,15.27
2022-12-18T07:12:11.461Z,17.48
2022-12-18T07:14:38.257Z,13.37
2022-12-18T07:17:05.091Z,11.70
2022-12-18T07:19:33.362Z,12.70
2022-12-18T07:22:00.389Z,12.00
2022-12-18T07:24:27.161Z,11.85
2022-12-18T07:26:54.050Z,10.40
2022-12-18T07:29:20.843Z,11.73
2022-12-18T07:31:47.705Z,11.90
2022-12-18T07:34:16.034Z,9.20
2022-12-18T07:36:43.026Z,11.38
2022-12-18T07:39:11.704Z,9.97
2022-12-18T07:41:41.308Z,10.05
2022-12-18T07:44:12.397Z,9.40
2022-12-18T07:46:39.709Z,8.90
2022-12-18T07:49:06.559Z,7.85
2022-12-18T07:51:33.377Z,9.67
2022-12-18T07:54:00.157Z,11.18
2022-12-18T07:56:28.701Z,12.82
2022-12-18T07:58:57.185Z,10.25
2022-12-18T08:01:24.242Z,9.35
2022-12-18T08:03:51.875Z,15.03
2022-12-18T08:06:22.417Z,11.57
2022-12-18T08:08:55.737Z,9.93
2022-12-18T08:11:24.023Z,8.40
2022-12-18T08:13:50.854Z,7.63
2022-12-18T08:16:18.633Z,6.63
2022-12-18T08:18:46.370Z,6.72
2022-12-18T08:21:16.075Z,6.60
2022-12-18T08:23:43.705Z,7.10
2022-12-18T08:26:12.488Z,9.32
2022-12-18T08:28:39.712Z,10.50
2022-12-18T08:31:07.629Z,12.38
2022-12-18T08:33:36.131Z,16.80
2022-12-18T08:36:04.926Z,14.27
2022-12-18T08:38:32.949Z,11.40
2022-12-18T08:41:05.740Z,10.10
2022-12-18T08:43:51.582Z,9.77
2022-12-18T08:46:20.013Z,8.02
2022-12-18T08:48:47.186Z,8.02
2022-12-18T08:51:16.651Z,8.13
2022-12-18T08:53:43.766Z,7.67
2022-12-18T08:56:10.787Z,9.45
2022-12-18T08:58:37.593Z,7.47
2022-12-18T09:01:06.349Z,6.78
2022-12-18T09:03:34.070Z,6.50
2022-12-18T09:06:00.833Z,6.43
2022-12-18T09:08:28.164Z,5.78
2022-12-18T09:10:55.342Z,5.55
2022-12-18T09:13:22.604Z,7.28
2022-12-18T09:15:51.546Z,7.10
2022-12-18T09:18:20.533Z,6.37
2022-12-18T09:20:47.814Z,6.20
2022-12-18T09:23:14.854Z,6.90
2022-12-18T09:25:41.804Z,7.20
2022-12-18T09:28:14.545Z,6.90
2022-12-18T09:30:48.599Z,6.33
2022-12-18T09:33:17.627Z,7.65
2022-12-18T09:35:45.655Z,7.90
2022-12-18T09:38:15.336Z,7.63
2022-12-18T09:40:48.399Z,9.02
2022-12-18T09:43:38.341Z,8.77
2022-12-18T09:46:10.021Z,7.88
2022-12-18T09:48:41.770Z,10.27
2022-12-18T09:51:23.737Z,8.93
2022-12-18T09:54:04.677Z,8.05
2022-12-18T09:56:37.934Z,8.17
2022-12-18T09:59:05.945Z,8.55
2022-12-18T10:01:43.234Z,8.25
2022-12-18T10:04:11.579Z,8.95
2022-12-18T10:06:55.321Z,9.90
2022-12-18T10:09:58.810Z,8.37
2022-12-18T10:13:04.925Z,9.43
2022-12-18T10:15:31.984Z,8.90
2022-12-18T10:18:21.577Z,6.63
2022-12-18T10:20:53.479Z,10.40
2022-12-18T10:24:03.061Z,9.00
2022-12-18T10:26:29.850Z,7.20
2022-12-18T10:29:05.253Z,8.68
2022-12-18T10:31:32.717Z,10.77
2022-12-18T10:33:59.507Z,10.23
2022-12-18T10:36:26.358Z,10.23
2022-12-18T10:38:53.255Z,8.10
2022-12-18T10:41:21.773Z,10.95
2022-12-18T10:43:48.899Z,10.10
2022-12-18T10:46:20.484Z,9.20
2022-12-18T10:48:54.746Z,9.97
2022-12-18T10:51:32.442Z,7.88
2022-12-18T10:54:06.447Z,11.55
2022-12-18T10:56:36.730Z,7.72
2022-12-18T10:59:09.150Z,9.43
2022-12-18T11:01:58.360Z,11.00
2022-12-18T11:04:31.412Z,8.73
2022-12-18T11:07:06.768Z,7.68
2022-12-18T11:09:42.451Z,7.53
2022-12-18T11:12:19.292Z,9.23
2022-12-18T11:14:52.399Z,10.27
2022-12-18T11:17:30.804Z,7.20
2022-12-18T11:20:20.193Z,7.68
2022-12-18T11:23:06.653Z,8.75
2022-12-18T11:25:35.978Z,9.88
2022-12-18T11:28:26.597Z,8.97
2022-12-18T11:31:23.752Z,9.30
2022-12-18T11:34:26.675Z,7.45
2022-12-18T11:36:47.582Z,7.97
2022-12-18T11:39:22.683Z,9.23
2022-12-18T11:42:12.884Z,7.27
2022-12-18T11:45:03.405Z,8.05
2022-12-18T11:47:41.696Z,8.93
2022-12-18T11:50:18.430Z,7.53
2022-12-18T11:52:45.873Z,9.88
2022-12-18T11:55:16.798Z,9.60
2022-12-18T11:58:31.830Z,7.88
2022-12-18T12:01:24.619Z,8.57
2022-12-18T12:04:00.630Z,8.80
2022-12-18T12:07:03.343Z,7.28
2022-12-18T12:09:51.102Z,6.70
2022-12-18T12:12:49.365Z,7.85
2022-12-18T12:15:45.381Z,9.45
2022-12-18T12:18:38.649Z,9.73
2022-12-18T12:21:14.255Z,10.05
2022-12-18T12:24:05.109Z,9.23
2022-12-18T12:26:50.434Z,11.07
2022-12-18T12:29:42.981Z,12.95
2022-12-18T12:32:12.612Z,9.98
2022-12-18T12:35:07.777Z,9.63
2022-12-18T12:37:58.141Z,10.73
2022-12-18T12:43:29.400Z,9.15
2022-12-18T12:46:07.934Z,12.02
2022-12-18T12:48:56.834Z,12.00
2022-12-18T12:51:34.968Z,9.70
2022-12-18T12:54:04.667Z,11.63
2022-12-18T12:56:45.862Z,11.73
2022-12-18T12:59:32.732Z,13.35
2022-12-18T13:02:07.901Z,13.80
2022-12-18T13:04:43.477Z,8.20
2022-12-18T13:07:39.389Z,12.85
2022-12-18T13:10:26.847Z,12.50
2022-12-18T13:13:08.152Z,10.57
2022-12-18T13:15:51.306Z,11.05
2022-12-18T13:18:23.669Z,12.97
2022-12-18T13:21:10.874Z,12.15
2022-12-18T13:23:39.127Z,11.77
2022-12-18T13:26:10.778Z,11.15
2022-12-18T13:28:49.358Z,10.57
2022-12-18T13:31:42.605Z,15.17
2022-12-18T13:34:27.729Z,8.02
2022-12-18T13:36:57.602Z,12.32
2022-12-18T13:39:34.789Z,12.57
2022-12-18T13:42:08.930Z,12.07
2022-12-18T13:44:40.685Z,12.27
2022-12-18T13:47:26.770Z,13.50
2022-12-18T13:49:53.922Z,10.15
2022-12-18T13:52:35.870Z,11.40
2022-12-18T13:55:06.285Z,12.93
2022-12-18T13:57:36.075Z,13.80
2022-12-18T14:00:37.191Z,14.70
2022-12-18T14:03:22.033Z,14.15
2022-12-18T14:06:03.523Z,11.73
2022-12-18T14:08:37.838Z,13.95
2022-12-18T14:11:06.586Z,17.23
2022-12-18T14:13:42.460Z,15.55
2022-12-18T14:16:15.300Z,12.27
2022-12-18T14:18:58.761Z,14.75
2022-12-18T14:21:38.902Z,12.57
2022-12-18T14:24:16.809Z,12.10
2022-12-18T14:26:47.406Z,14.52
2022-12-18T14:29:32.018Z,17.15
2022-12-18T14:32:17.547Z,12.57
2022-12-18T14:34:49.494Z,14.98
2022-12-18T14:37:19.078Z,15.30
2022-12-18T14:40:11.066Z,11.98
2022-12-18T14:42:38.479Z,13.75
2022-12-18T14:45:41.057Z,12.50
2022-12-18T14:48:16.319Z,15.18
2022-12-18T14:51:05.307Z,12.87
2022-12-18T14:53:42.016Z,15.75
2022-12-18T14:56:18.298Z,11.80
2022-12-18T14:58:47.645Z,9.45
2022-12-18T15:01:29.775Z,13.40
2022-12-18T15:03:58.172Z,15.53
2022-12-18T15:06:38.108Z,11.88
2022-12-18T15:09:22.089Z,13.20
2022-12-18T15:11:48.993Z,10.57
2022-12-18T15:14:42.682Z,9.63
2022-12-18T15:17:35.920Z,11.13
2022-12-18T15:20:10.444Z,11.32
2022-12-18T15:22:38.707Z,14.43
2022-12-18T15:25:35.155Z,15.65
2022-12-18T15:28:02.076Z,14.38
2022-12-18T15:30:29.328Z,12.90
2022-12-18T15:33:23.564Z,10.82
2022-12-18T15:35:58.245Z,13.77
2022-12-18T15:38:27.025Z,11.85
2022-12-18T15:40:55.011Z,15.02
2022-12-18T15:43:44.397Z,14.00
2022-12-18T15:46:19.770Z,11.98
2022-12-18T15:48:52.251Z,12.30
2022-12-18T15:51:24.681Z,13.38
2022-12-18T15:53:55.228Z,14.25
2022-12-18T15:56:41.162Z,11.63
2022-12-18T15:59:16.466Z,15.43
2022-12-18T16:01:45.759Z,12.02
2022-12-18T16:04:14.514Z,12.60
2022-12-18T16:07:12.634Z,14.70
2022-12-18T16:09:28.868Z,15.93
2022-12-18T16:11:55.588Z,12.73
2022-12-18T16:14:29.684Z,12.05
2022-12-18T16:16:59.310Z,12.88
2022-12-18T16:19:26.757Z,11.32
2022-12-18T16:21:56.009Z,14.23
2022-12-18T16:24:24.973Z,14.90
2022-12-18T16:26:52.982Z,13.05
2022-12-18T16:29:28.283Z,16.35
2022-12-18T16:31:56.412Z,11.90
2022-12-18T16:34:30.005Z,12.17
2022-12-18T16:37:06.038Z,11.32
2022-12-18T16:39:36.841Z,10.23
2022-12-18T16:42:06.658Z,13.88
2022-12-18T16:44:36.933Z,16.02
2022-12-18T16:47:04.693Z,11.83
2022-12-18T16:49:32.017Z,12.10
2022-12-18T16:52:00.264Z,14.60
2022-12-18T16:54:30.597Z,12.70
2022-12-18T16:56:58.037Z,13.18
2022-12-18T16:59:28.193Z,14.43
2022-12-18T17:01:57.294Z,13.45
2022-12-18T17:04:25.592Z,14.75
2022-12-18T17:06:53.951Z,12.63
2022-12-18T17:09:31.118Z,13.88
2022-12-18T17:12:04.399Z,11.40
2022-12-18T17:14:33.049Z,11.63
2022-12-18T17:19:52.261Z,7.28
2022-12-18T17:22:20.465Z,11.38
2022-12-18T17:24:47.605Z,14.57
2022-12-18T17:27:17.658Z,11.80
2022-12-18T17:29:47.750Z,12.93
2022-12-18T17:32:17.622Z,9.05
2022-12-18T17:34:46.078Z,13.68
2022-12-18T17:37:13.121Z,11.17
2022-12-18T17:39:41.387Z,11.00
2022-12-18T17:42:15.347Z,16.65
2022-12-18T17:44:46.330Z,12.10
2022-12-18T17:47:28.189Z,12.50
2022-12-18T17:49:56.899Z,9.37
2022-12-18T17:52:24.366Z,15.35
2022-12-18T17:54:57.234Z,11.48
2022-12-18T17:57:26.513Z,12.68
2022-12-18T17:59:53.387Z,14.20
2022-12-18T18:02:20.703Z,16.17
2022-12-18T18:04:48.651Z,12.48
2022-12-18T18:07:15.559Z,11.27
2022-12-18T18:09:42.470Z,9.10
2022-12-18T18:12:27.997Z,11.68
2022-12-18T18:14:54.925Z,11.03
2022-12-18T18:17:21.818Z,15.35
2022-12-18T18:19:49.637Z,10.50
2022-12-18T18:22:16.726Z,10.05
2022-12-18T18:24:44.738Z,12.98
2022-12-18T18:27:13.139Z,13.93
2022-12-18T18:29:40.231Z,11.38
2022-12-18T18:32:07.383Z,12.82
2022-12-18T18:34:34.334Z,10.88
2022-12-18T18:37:02.132Z,13.32
2022-12-18T18:39:29.831Z,10.07
2022-12-18T18:41:56.622Z,11.85
2022-12-18T18:44:25.628Z,11.68
2022-12-18T18:46:56.944Z,10.20
2022-12-18T18:49:27.102Z,11.60
2022-12-18T18:51:54.956Z,10.47
2022-12-18T18:54:21.965Z,9.30
2022-12-18T18:59:36.531Z,10.77
2022-12-18T19:02:04.062Z,11.30
2022-12-18T19:04:32.384Z,11.03
2022-12-18T19:06:59.179Z,11.55
2022-12-18T19:09:26.418Z,12.02
2022-12-18T19:12:12.158Z,11.40
2022-12-18T19:14:38.883Z,13.63
2022-12-18T19:17:05.673Z,12.00
2022-12-18T19:19:32.691Z,13.18
2022-12-18T19:21:59.744Z,13.77
2022-12-18T19:24:26.533Z,8.70
2022-12-18T19:26:56.830Z,14.02
2022-12-18T19:29:25.122Z,11.00
2022-12-18T19:31:52.005Z,10.82
2022-12-18T19:34:19.005Z,10.77
2022-12-18T19:36:46.531Z,10.43
2022-12-18T19:39:16.401Z,12.20
2022-12-18T19:41:43.641Z,12.90
2022-12-18T19:44:12.630Z,11.55
2022-12-18T19:46:41.964Z,11.48
2022-12-18T19:49:16.275Z,12.98
2022-12-18T19:51:45.324Z,15.77
2022-12-18T19:54:16.677Z,13.30
2022-12-18T19:56:45.336Z,16.02
2022-12-18T19:59:12.531Z,16.35
2022-12-18T20:01:39.787Z,12.93
2022-12-18T20:04:07.011Z,18.60
2022-12-18T20:06:45.307Z,27.90
2022-12-18T20:09:12.244Z,25.92
2022-12-18T20:11:41.481Z,16.83
2022-12-18T20:14:13.624Z,17.45
2022-12-18T20:16:41.088Z,15.93
2022-12-18T20:19:08.678Z,17.23
2022-12-18T20:21:36.445Z,16.85
2022-12-18T20:24:03.649Z,18.45
2022-12-18T20:26:30.594Z,16.80
2022-12-18T20:28:57.345Z,16.10
2022-12-18T20:31:24.808Z,13.90
2022-12-18T20:33:52.152Z,15.65
2022-12-18T20:36:23.583Z,15.27
2022-12-18T20:38:54.669Z,15.30
2022-12-18T20:41:24.539Z,15.45
2022-12-18T20:43:51.701Z,15.77
2022-12-18T20:46:18.966Z,16.50
2022-12-18T20:48:45.932Z,16.90
2022-12-18T20:51:18.066Z,15.98
2022-12-18T20:53:46.551Z,18.05
2022-12-18T20:56:21.141Z,12.80
2022-12-18T20:58:51.781Z,15.40
2022-12-18T21:01:22.854Z,16.38
2022-12-18T21:03:50.846Z,15.63
2022-12-18T21:06:19.777Z,15.85
2022-12-18T21:08:47.112Z,15.33
2022-12-18T21:11:38.815Z,16.40
2022-12-18T21:14:21.042Z,14.90
2022-12-18T21:16:48.118Z,12.88
2022-12-18T21:19:17.933Z,14.30
2022-12-18T21:21:45.864Z,13.73
2022-12-18T21:24:13.191Z,15.35
2022-12-18T21:26:45.088Z,14.88
2022-12-18T21:29:24.956Z,15.40
2022-12-18T21:31:54.126Z,15.23
2022-12-18T21:34:25.445Z,14.40
2022-12-18T21:36:52.938Z,14.55
2022-12-18T21:39:20.323Z,14.85
2022-12-18T21:42:08.512Z,14.77
2022-12-18T21:44:40.869Z,14.40
2022-12-18T21:47:22.326Z,13.13
2022-12-18T21:49:51.376Z,14.30
2022-12-18T21:52:18.331Z,14.88
2022-12-18T21:54:45.057Z,15.68
2022-12-18T21:57:13.433Z,15.95
2022-12-18T21:59:42.692Z,15.33
2022-12-18T22:02:18.136Z,14.50
2022-12-18T22:04:46.909Z,15.43
2022-12-18T22:07:15.661Z,13.55
2022-12-18T22:09:43.004Z,15.80
2022-12-18T22:12:12.716Z,16.83
2022-12-18T22:14:39.439Z,15.02
2022-12-18T22:17:06.286Z,15.88
2022-12-18T22:19:38.159Z,13.55
2022-12-18T22:22:09.610Z,14.88
2022-12-18T22:24:36.377Z,13.70
2022-12-18T22:27:03.182Z,14.93
2022-12-18T22:29:48.735Z,15.73
2022-12-18T22:32:30.566Z,15.13
2022-12-18T22:35:05.890Z,14.32
2022-12-18T22:37:34.145Z,14.80
2022-12-18T22:40:02.928Z,14.20
2022-12-18T22:42:31.074Z,14.40
2022-12-18T22:44:57.978Z,13.45
2022-12-18T22:47:29.403Z,14.35
2022-12-18T22:49:56.713Z,14.40
2022-12-18T22:52:23.847Z,14.38
2022-12-18T22:54:53.684Z,13.98
2022-12-18T22:57:22.232Z,13.88
2022-12-18T22:59:50.300Z,13.55
2022-12-18T23:02:18.189Z,14.00
2022-12-18T23:04:45.268Z,13.85
2022-12-18T23:07:12.593Z,14.30
2022-12-18T23:09:40.471Z,13.25
2022-12-18T23:12:09.685Z,14.98
2022-12-18T23:14:36.617Z,13.97
2022-12-18T23:17:03.436Z,14.27
2022-12-18T23:19:30.217Z,15.00
2022-12-18T23:21:58.784Z,14.40
2022-12-18T23:24:26.369Z,15.73
2022-12-18T23:26:53.293Z,13.97
2022-12-18T23:29:20.552Z,16.75
2022-12-18T23:31:47.423Z,15.30
2022-12-18T23:34:15.048Z,14.02
2022-12-18T23:36:46.380Z,12.73
2022-12-18T23:39:19.968Z,13.53
2022-12-18T23:41:58.388Z,14.13
2022-12-18T23:44:25.620Z,15.60
2022-12-18T23:46:52.804Z,15.90
2022-12-18T23:49:19.914Z,14.82
2022-12-18T23:51:46.662Z,14.63
2022-12-18T23:54:13.459Z,14.65
2022-12-18T23:56:40.276Z,15.50
2022-12-18T23:59:07.129Z,13.43
